createdAt,value
2018-12-26T00:00:11.371Z,20.37
2018-12-26T00:03:15.121Z,24.07
2018-12-26T00:06:18.830Z,23.93
2018-12-26T00:09:22.332Z,23.40
2018-12-26T00:12:25.889Z,24.10
2018-12-26T00:15:30.384Z,24.23
2018-12-26T00:18:34.089Z,23.20
2018-12-26T00:21:37.675Z,25.80
2018-12-26T00:24:41.183Z,24.63
2018-12-26T00:27:44.690Z,26.80
2018-12-26T00:30:48.187Z,25.00
2018-12-26T00:33:51.710Z,23.70
2018-12-26T00:36:55.315Z,23.70
2018-12-26T00:39:58.787Z,24.13
2018-12-26T00:43:02.355Z,23.80
2018-12-26T00:46:05.797Z,24.33
2018-12-26T00:49:09.381Z,22.47
2018-12-26T00:52:13.009Z,26.17
2018-12-26T00:55:16.501Z,26.17
2018-12-26T00:58:20.124Z,25.67
2018-12-26T01:01:25.596Z,25.20
2018-12-26T01:04:29.181Z,25.53
2018-12-26T01:07:32.685Z,24.10
2018-12-26T01:10:36.272Z,26.10
2018-12-26T01:13:39.885Z,28.33
2018-12-26T01:16:43.634Z,25.97
2018-12-26T01:19:47.379Z,24.73
2018-12-26T01:22:51.049Z,26.00
2018-12-26T01:25:54.643Z,28.63
2018-12-26T01:28:58.307Z,25.77
2018-12-26T01:32:01.901Z,29.70
2018-12-26T01:35:05.643Z,28.73
2018-12-26T01:38:09.162Z,29.37
2018-12-26T01:41:12.757Z,27.33
2018-12-26T01:44:16.357Z,30.57
2018-12-26T01:47:19.957Z,27.33
2018-12-26T01:50:25.164Z,33.90
2018-12-26T01:53:28.698Z,35.13
2018-12-26T01:56:32.314Z,31.93
2018-12-26T01:59:35.833Z,28.97
2018-12-26T02:02:39.342Z,24.27
2018-12-26T02:05:42.951Z,25.17
2018-12-26T02:08:46.561Z,22.03
2018-12-26T02:11:50.111Z,21.50
2018-12-26T02:14:53.656Z,20.53
2018-12-26T02:17:57.301Z,20.67
2018-12-26T02:21:00.990Z,21.23
2018-12-26T02:24:04.617Z,22.43
2018-12-26T02:27:08.092Z,25.27
2018-12-26T02:30:11.689Z,26.17
2018-12-26T02:33:15.301Z,24.27
2018-12-26T02:36:18.785Z,26.17
2018-12-26T02:39:23.381Z,24.03
2018-12-26T02:42:27.006Z,24.03
2018-12-26T02:45:30.521Z,23.03
2018-12-26T02:48:34.019Z,26.20
2018-12-26T02:51:37.525Z,25.03
2018-12-26T02:54:41.099Z,25.80
2018-12-26T02:57:44.641Z,25.53
2018-12-26T03:00:48.151Z,27.67
2018-12-26T03:03:51.752Z,27.43
2018-12-26T03:06:56.418Z,25.87
2018-12-26T03:09:59.973Z,27.23
2018-12-26T03:13:04.603Z,28.23
2018-12-26T03:16:08.202Z,28.27
2018-12-26T03:19:11.810Z,27.10
2018-12-26T03:22:15.413Z,25.47
2018-12-26T03:25:18.926Z,27.07
2018-12-26T03:28:22.523Z,31.10
2018-12-26T03:31:26.127Z,34.47
2018-12-26T03:34:30.038Z,32.00
2018-12-26T03:37:33.727Z,29.47
2018-12-26T03:40:37.321Z,27.67
2018-12-26T03:43:40.867Z,27.70
2018-12-26T03:46:44.490Z,33.03
2018-12-26T03:49:47.977Z,32.33
2018-12-26T03:52:51.503Z,32.10
2018-12-26T03:56:01.124Z,33.17
2018-12-26T03:59:04.747Z,31.37
2018-12-26T04:02:09.345Z,33.63
2018-12-26T04:05:12.922Z,30.47
2018-12-26T04:08:16.383Z,32.87
2018-12-26T04:11:19.974Z,34.43
2018-12-26T04:14:23.629Z,30.57
2018-12-26T04:17:27.242Z,31.27
2018-12-26T04:20:30.803Z,34.27
2018-12-26T04:23:34.391Z,34.63
2018-12-26T04:26:37.997Z,34.43
2018-12-26T04:29:41.604Z,34.70
2018-12-26T04:32:45.209Z,35.87
2018-12-26T04:35:48.917Z,31.60
2018-12-26T04:38:52.519Z,35.23
2018-12-26T04:41:56.329Z,38.50
2018-12-26T04:44:59.852Z,32.37
2018-12-26T04:48:03.512Z,33.13
2018-12-26T04:51:07.121Z,35.23
2018-12-26T04:54:10.747Z,35.53
2018-12-26T04:57:14.350Z,34.03
2018-12-26T05:00:17.878Z,34.67
2018-12-26T05:03:22.465Z,36.17
2018-12-26T05:06:26.060Z,35.47
2018-12-26T05:09:29.679Z,32.87
2018-12-26T05:12:33.313Z,31.00
2018-12-26T05:15:37.099Z,38.13
2018-12-26T05:18:41.191Z,39.20
2018-12-26T05:21:44.734Z,35.10
2018-12-26T05:24:48.439Z,35.33
2018-12-26T05:27:52.128Z,37.03
2018-12-26T05:30:55.754Z,38.00
2018-12-26T05:33:59.284Z,38.17
2018-12-26T05:37:02.784Z,31.77
2018-12-26T05:40:06.409Z,30.23
2018-12-26T05:43:09.946Z,32.17
2018-12-26T05:46:13.598Z,34.20
2018-12-26T05:49:17.220Z,32.57
2018-12-26T05:52:20.789Z,33.50
2018-12-26T05:55:24.371Z,33.27
2018-12-26T05:58:27.974Z,33.93
2018-12-26T06:01:31.610Z,28.53
2018-12-26T06:04:35.230Z,33.20
2018-12-26T06:07:38.739Z,32.27
2018-12-26T06:10:42.418Z,29.10
2018-12-26T06:13:46.104Z,32.43
2018-12-26T06:16:49.743Z,30.40
2018-12-26T06:19:53.445Z,29.20
2018-12-26T06:22:57.059Z,28.27
2018-12-26T06:26:00.623Z,31.43
2018-12-26T06:29:04.261Z,29.67
2018-12-26T06:32:07.847Z,28.30
2018-12-26T06:35:11.499Z,27.47
2018-12-26T06:38:15.135Z,29.93
2018-12-26T06:41:18.712Z,32.47
2018-12-26T06:44:22.182Z,29.17
2018-12-26T06:47:25.797Z,31.13
2018-12-26T06:50:29.474Z,30.67
2018-12-26T06:53:33.013Z,32.20
2018-12-26T06:56:37.902Z,27.57
2018-12-26T06:59:41.449Z,28.37
2018-12-26T07:02:45.075Z,32.17
2018-12-26T07:05:48.607Z,28.43
2018-12-26T07:08:52.191Z,29.00
2018-12-26T07:11:55.895Z,28.23
2018-12-26T07:14:59.532Z,32.87
2018-12-26T07:18:04.081Z,30.37
2018-12-26T07:21:07.735Z,29.87
2018-12-26T07:24:11.416Z,32.43
2018-12-26T07:27:15.084Z,34.30
2018-12-26T07:30:18.649Z,27.80
2018-12-26T07:33:22.408Z,24.47
2018-12-26T07:36:26.089Z,24.50
2018-12-26T07:39:29.656Z,23.07
2018-12-26T07:42:33.285Z,24.17
2018-12-26T07:45:36.800Z,24.83
2018-12-26T07:48:40.388Z,27.10
2018-12-26T07:51:44.032Z,26.97
2018-12-26T07:54:47.616Z,26.47
2018-12-26T07:57:51.525Z,27.30
2018-12-26T08:00:55.019Z,29.37
2018-12-26T08:03:58.570Z,26.77
2018-12-26T08:07:02.182Z,22.73
2018-12-26T08:10:06.834Z,23.67
2018-12-26T08:13:10.310Z,25.87
2018-12-26T08:16:14.062Z,25.23
2018-12-26T08:19:17.634Z,26.83
2018-12-26T08:22:21.312Z,27.27
2018-12-26T08:25:24.833Z,25.73
2018-12-26T08:28:28.466Z,29.10
2018-12-26T08:31:32.062Z,24.23
2018-12-26T08:34:37.511Z,26.50
2018-12-26T08:37:39.233Z,26.37
2018-12-26T08:40:42.675Z,25.87
2018-12-26T08:43:46.170Z,22.63
2018-12-26T08:46:49.766Z,27.40
2018-12-26T08:49:53.378Z,29.83
2018-12-26T08:52:57.054Z,27.20
2018-12-26T08:56:00.563Z,25.10
2018-12-26T08:59:04.064Z,25.40
2018-12-26T09:02:07.604Z,27.67
2018-12-26T09:05:11.209Z,25.90
2018-12-26T09:08:14.695Z,23.50
2018-12-26T09:11:18.301Z,20.90
2018-12-26T09:14:21.906Z,25.70
2018-12-26T09:17:25.406Z,27.93
2018-12-26T09:20:28.996Z,27.57
2018-12-26T09:23:32.498Z,26.63
2018-12-26T09:26:38.253Z,26.33
2018-12-26T09:29:41.778Z,24.90
2018-12-26T09:32:45.405Z,30.17
2018-12-26T09:35:48.960Z,25.30
2018-12-26T09:38:52.377Z,23.93
2018-12-26T09:41:55.918Z,26.17
2018-12-26T09:44:59.490Z,25.97
2018-12-26T09:48:02.964Z,25.33
2018-12-26T09:51:06.416Z,25.87
2018-12-26T09:54:09.902Z,24.40
2018-12-26T09:57:13.379Z,26.33
2018-12-26T10:00:16.925Z,24.70
2018-12-26T10:03:20.484Z,21.60
2018-12-26T10:06:24.111Z,22.63
2018-12-26T10:09:28.628Z,22.43
2018-12-26T10:12:32.166Z,24.17
2018-12-26T10:15:35.708Z,21.87
2018-12-26T10:18:39.177Z,26.33
2018-12-26T10:21:42.766Z,24.20
2018-12-26T10:24:46.445Z,24.33
2018-12-26T10:27:49.872Z,20.60
2018-12-26T10:30:53.356Z,23.17
2018-12-26T10:33:56.778Z,26.50
2018-12-26T10:37:00.248Z,23.77
2018-12-26T10:40:03.765Z,24.43
2018-12-26T10:43:07.164Z,23.60
2018-12-26T10:46:10.539Z,25.17
2018-12-26T10:49:13.954Z,24.80
2018-12-26T10:52:17.354Z,27.10
2018-12-26T10:55:20.734Z,22.97
2018-12-26T10:58:24.152Z,23.33
2018-12-26T11:01:27.561Z,24.13
2018-12-26T11:04:31.127Z,24.60
2018-12-26T11:07:34.452Z,25.47
2018-12-26T11:10:37.918Z,23.33
2018-12-26T11:13:41.636Z,26.70
2018-12-26T11:16:45.266Z,24.80
2018-12-26T11:19:51.106Z,25.23
2018-12-26T11:22:54.723Z,20.80
2018-12-26T11:25:58.114Z,21.97
2018-12-26T11:29:01.621Z,19.57
2018-12-26T11:32:05.123Z,22.60
2018-12-26T11:35:08.853Z,24.27
2018-12-26T11:38:12.287Z,25.17
2018-12-26T11:41:15.802Z,27.27
2018-12-26T11:44:19.341Z,24.97
2018-12-26T11:47:22.744Z,23.33
2018-12-26T11:50:26.139Z,23.80
2018-12-26T11:53:29.648Z,24.00
2018-12-26T11:56:33.403Z,27.10
2018-12-26T11:59:36.857Z,23.33
2018-12-26T12:02:40.292Z,25.93
2018-12-26T12:05:43.768Z,23.57
2018-12-26T12:08:47.271Z,25.00
2018-12-26T12:11:50.758Z,24.87
2018-12-26T12:14:54.173Z,21.97
2018-12-26T12:17:57.604Z,25.47
2018-12-26T12:21:00.984Z,22.47
2018-12-26T12:24:04.452Z,23.57
2018-12-26T12:27:07.947Z,20.13
2018-12-26T12:30:11.536Z,23.73
2018-12-26T12:33:17.165Z,33.40
2018-12-26T12:36:20.666Z,25.93
2018-12-26T12:39:24.039Z,19.77
2018-12-26T12:42:28.892Z,21.27
2018-12-26T12:45:32.397Z,26.07
2018-12-26T12:48:35.881Z,21.57
2018-12-26T12:51:39.430Z,22.50
2018-12-26T12:54:42.976Z,23.97
2018-12-26T12:57:46.591Z,23.87
2018-12-26T13:00:50.182Z,20.37
2018-12-26T13:03:53.689Z,22.07
2018-12-26T13:06:57.321Z,24.53
2018-12-26T13:10:00.896Z,25.03
2018-12-26T13:13:04.471Z,27.90
2018-12-26T13:16:07.997Z,28.80
2018-12-26T13:19:11.805Z,28.20
2018-12-26T13:22:15.421Z,26.60
2018-12-26T13:25:18.981Z,27.93
2018-12-26T13:28:22.499Z,27.50
2018-12-26T13:31:25.958Z,27.50
2018-12-26T13:34:29.538Z,29.50
2018-12-26T13:37:42.027Z,27.83
2018-12-26T13:40:45.536Z,27.50
2018-12-26T13:43:49.040Z,30.07
2018-12-26T13:46:52.586Z,26.67
2018-12-26T13:49:56.248Z,26.90
2018-12-26T13:52:59.748Z,29.43
2018-12-26T13:56:03.291Z,27.97
2018-12-26T13:59:06.851Z,26.33
2018-12-26T14:02:10.353Z,26.40
2018-12-26T14:05:13.884Z,30.10
2018-12-26T14:08:17.382Z,26.53
2018-12-26T14:11:20.967Z,28.60
2018-12-26T14:14:24.457Z,31.17
2018-12-26T14:17:27.932Z,28.63
2018-12-26T14:20:31.363Z,30.67
2018-12-26T14:23:35.340Z,31.40
2018-12-26T14:26:38.829Z,33.23
2018-12-26T14:29:42.628Z,32.37
2018-12-26T14:32:45.961Z,28.47
2018-12-26T14:35:56.218Z,30.43
2018-12-26T14:38:59.724Z,31.40
2018-12-26T14:42:03.259Z,31.90
2018-12-26T14:45:06.663Z,31.67
2018-12-26T14:48:10.267Z,32.33
2018-12-26T14:51:13.820Z,34.00
2018-12-26T14:54:17.299Z,30.43
2018-12-26T14:57:20.790Z,33.17
2018-12-26T15:00:24.310Z,29.00
2018-12-26T15:03:28.136Z,29.73
2018-12-26T15:06:32.722Z,31.40
2018-12-26T15:09:36.328Z,29.30
2018-12-26T15:12:39.759Z,34.03
2018-12-26T15:15:43.532Z,28.33
2018-12-26T15:18:47.201Z,30.80
2018-12-26T15:21:50.655Z,37.53
2018-12-26T15:24:54.131Z,38.43
2018-12-26T15:27:57.693Z,33.97
2018-12-26T15:31:01.461Z,33.20
2018-12-26T15:34:05.068Z,33.83
2018-12-26T15:37:08.457Z,37.20
2018-12-26T15:40:12.160Z,35.70
2018-12-26T15:43:15.595Z,37.37
2018-12-26T15:46:19.097Z,36.07
2018-12-26T15:49:22.646Z,32.63
2018-12-26T15:52:26.167Z,32.53
2018-12-26T15:55:29.686Z,32.93
2018-12-26T15:58:33.245Z,31.23
2018-12-26T16:01:37.816Z,30.00
2018-12-26T16:04:41.311Z,30.30
2018-12-26T16:07:45.494Z,32.13
2018-12-26T16:10:48.917Z,29.27
2018-12-26T16:13:52.456Z,34.33
2018-12-26T16:16:55.936Z,33.40
2018-12-26T16:19:59.412Z,34.63
2018-12-26T16:23:03.211Z,30.57
2018-12-26T16:26:06.741Z,33.33
2018-12-26T16:29:10.160Z,36.03
2018-12-26T16:32:13.607Z,34.13
2018-12-26T16:35:17.213Z,31.10
2018-12-26T16:38:20.754Z,34.20
2018-12-26T16:41:24.152Z,34.47
2018-12-26T16:44:27.546Z,33.63
2018-12-26T16:47:31.147Z,34.97
2018-12-26T16:50:34.675Z,34.00
2018-12-26T16:53:38.413Z,34.10
2018-12-26T16:56:41.890Z,32.03
2018-12-26T16:59:45.385Z,33.57
2018-12-26T17:02:48.935Z,35.90
2018-12-26T17:05:52.430Z,32.33
2018-12-26T17:08:56.057Z,33.57
2018-12-26T17:11:59.594Z,35.93
2018-12-26T17:15:02.984Z,32.73
2018-12-26T17:18:06.565Z,33.03
2018-12-26T17:21:10.129Z,32.90
2018-12-26T17:24:16.671Z,34.53
2018-12-26T17:27:17.310Z,34.27
2018-12-26T17:30:21.029Z,33.73
2018-12-26T17:33:24.538Z,37.10
2018-12-26T17:36:27.990Z,36.17
2018-12-26T17:39:32.002Z,37.00
2018-12-26T17:42:35.704Z,35.60
2018-12-26T17:45:39.269Z,33.30
2018-12-26T17:48:42.874Z,35.30
2018-12-26T17:51:46.456Z,37.33
2018-12-26T17:56:03.689Z,34.17
2018-12-26T17:59:15.419Z,37.57
2018-12-26T18:02:23.655Z,36.07
2018-12-26T18:05:27.228Z,36.03
2018-12-26T18:08:30.880Z,37.17
2018-12-26T18:11:34.616Z,36.23
2018-12-26T18:14:38.124Z,35.37
2018-12-26T18:17:41.650Z,32.93
2018-12-26T18:20:45.330Z,36.73
2018-12-26T18:23:49.103Z,31.63
2018-12-26T18:26:52.569Z,37.20
2018-12-26T18:29:56.073Z,34.37
2018-12-26T18:32:59.743Z,33.53
2018-12-26T18:36:04.172Z,43.03
2018-12-26T18:39:08.111Z,41.57
2018-12-26T18:42:11.772Z,37.50
2018-12-26T18:45:15.356Z,36.43
2018-12-26T18:48:18.828Z,32.77
2018-12-26T18:51:22.423Z,34.10
2018-12-26T18:54:26.044Z,38.10
2018-12-26T18:57:29.545Z,31.53
2018-12-26T19:00:33.113Z,33.93
2018-12-26T19:03:36.747Z,32.27
2018-12-26T19:06:40.297Z,32.47
2018-12-26T19:09:43.893Z,43.80
2018-12-26T19:12:47.438Z,38.63
2018-12-26T19:15:51.039Z,36.60
2018-12-26T19:18:54.543Z,36.03
2018-12-26T19:21:58.030Z,32.90
2018-12-26T19:25:01.535Z,37.07
2018-12-26T19:28:05.138Z,36.47
2018-12-26T19:31:08.551Z,35.67
2018-12-26T19:34:12.045Z,37.17
2018-12-26T19:37:15.584Z,41.70
2018-12-26T19:40:20.196Z,39.00
2018-12-26T19:43:23.678Z,39.90
2018-12-26T19:46:27.213Z,41.47
2018-12-26T19:49:30.704Z,36.93
2018-12-26T19:52:34.330Z,36.80
2018-12-26T19:55:37.885Z,42.03
2018-12-26T19:58:41.411Z,34.37
2018-12-26T20:01:48.235Z,34.20
2018-12-26T20:04:48.504Z,36.63
2018-12-26T20:07:52.010Z,38.57
2018-12-26T20:10:59.936Z,35.10
2018-12-26T20:14:03.459Z,36.83
2018-12-26T20:17:06.980Z,38.03
2018-12-26T20:20:10.597Z,36.43
2018-12-26T20:23:14.015Z,39.90
2018-12-26T20:26:17.517Z,39.97
2018-12-26T20:29:21.099Z,34.57
2018-12-26T20:32:24.717Z,34.30
2018-12-26T20:35:28.311Z,39.73
2018-12-26T20:38:31.825Z,36.47
2018-12-26T20:41:35.565Z,38.10
2018-12-26T20:44:40.061Z,40.40
2018-12-26T20:47:43.577Z,36.20
2018-12-26T20:50:47.350Z,34.37
2018-12-26T20:53:50.766Z,35.30
2018-12-26T20:56:54.251Z,33.13
2018-12-26T20:59:57.771Z,35.57
2018-12-26T21:03:01.288Z,37.23
2018-12-26T21:06:04.880Z,38.13
2018-12-26T21:09:08.311Z,38.17
2018-12-26T21:12:11.811Z,37.43
2018-12-26T21:15:15.332Z,34.83
2018-12-26T21:18:18.852Z,38.93
2018-12-26T21:21:22.381Z,34.27
2018-12-26T21:24:25.933Z,34.73
2018-12-26T21:27:30.480Z,37.43
2018-12-26T21:30:33.976Z,37.17
2018-12-26T21:33:37.725Z,36.80
2018-12-26T21:36:42.317Z,37.70
2018-12-26T21:39:45.868Z,45.37
2018-12-26T21:42:49.411Z,45.03
2018-12-26T21:45:52.884Z,43.87
2018-12-26T21:48:56.508Z,43.50
2018-12-26T21:52:00.007Z,40.87
2018-12-26T21:55:03.422Z,42.37
2018-12-26T21:58:06.915Z,43.60
2018-12-26T22:01:10.744Z,42.50
2018-12-26T22:04:13.821Z,40.90
2018-12-26T22:07:17.304Z,38.93
2018-12-26T22:10:21.837Z,42.43
2018-12-26T22:13:25.353Z,44.23
2018-12-26T22:16:28.849Z,46.67
2018-12-26T22:19:32.369Z,46.03
2018-12-26T22:22:36.254Z,42.07
2018-12-26T22:25:39.684Z,42.50
2018-12-26T22:28:43.143Z,42.07
2018-12-26T22:31:46.689Z,43.43
2018-12-26T22:34:50.067Z,44.43
2018-12-26T22:37:54.569Z,37.60
2018-12-26T22:40:58.184Z,35.47
2018-12-26T22:44:01.825Z,39.97
2018-12-26T22:47:05.320Z,42.67
2018-12-26T22:50:08.803Z,43.30
2018-12-26T22:53:12.301Z,42.20
2018-12-26T22:56:16.003Z,41.90
2018-12-26T22:59:19.513Z,41.33
2018-12-26T23:02:22.985Z,39.17
2018-12-26T23:05:26.443Z,37.53
2018-12-26T23:08:29.934Z,41.80
2018-12-26T23:11:33.420Z,35.33
2018-12-26T23:14:36.829Z,35.57
2018-12-26T23:17:40.223Z,42.50
2018-12-26T23:20:43.735Z,41.23
2018-12-26T23:23:47.125Z,41.80
2018-12-26T23:26:57.140Z,44.93
2018-12-26T23:30:00.583Z,43.00
2018-12-26T23:33:04.057Z,41.53
2018-12-26T23:36:07.547Z,42.30
2018-12-26T23:39:11.088Z,41.30
2018-12-26T23:42:14.476Z,41.43
2018-12-26T23:45:17.897Z,40.70
2018-12-26T23:48:21.299Z,41.43
2018-12-26T23:51:24.706Z,42.27
2018-12-26T23:54:28.172Z,45.47
2018-12-26T23:57:31.692Z,41.93
